sensor_id;sensor_type;location;lat;lon;timestamp;temperature;humidity
22522;DHT22;11427;51.062;17.044;2023-02-15T00:05:46;3.00;99.90
22522;DHT22;11427;51.062;17.044;2023-02-15T00:20:48;3.10;99.90
22522;DHT22;11427;51.062;17.044;2023-02-15T00:35:56;3.10;99.90
22522;DHT22;11427;51.062;17.044;2023-02-15T00:50:59;2.90;99.90
22522;DHT22;11427;51.062;17.044;2023-02-15T01:06:03;2.80;99.90
22522;DHT22;11427;51.062;17.044;2023-02-15T01:21:13;2.10;99.90
22522;DHT22;11427;51.062;17.044;2023-02-15T01:36:15;1.80;99.90
22522;DHT22;11427;51.062;17.044;2023-02-15T01:51:22;1.40;99.90
22522;DHT22;11427;51.062;17.044;2023-02-15T02:06:26;1.60;99.90
22522;DHT22;11427;51.062;17.044;2023-02-15T02:52:47;1.30;99.90
22522;DHT22;11427;51.062;17.044;2023-02-15T03:07:50;1.30;99.90
22522;DHT22;11427;51.062;17.044;2023-02-15T03:22:58;1.30;99.90
22522;DHT22;11427;51.062;17.044;2023-02-15T03:38:01;0.90;99.90
22522;DHT22;11427;51.062;17.044;2023-02-15T03:53:07;1.10;99.90
22522;DHT22;11427;51.062;17.044;2023-02-15T04:08:12;1.40;99.90
22522;DHT22;11427;51.062;17.044;2023-02-15T04:23:14;1.20;99.90
22522;DHT22;11427;51.062;17.044;2023-02-15T04:38:34;1.00;99.90
22522;DHT22;11427;51.062;17.044;2023-02-15T04:53:36;1.20;99.90
22522;DHT22;11427;51.062;17.044;2023-02-15T05:08:38;1.10;99.90
22522;DHT22;11427;51.062;17.044;2023-02-15T05:23:40;0.90;99.90
22522;DHT22;11427;51.062;17.044;2023-02-15T05:38:42;0.80;99.90
22522;DHT22;11427;51.062;17.044;2023-02-15T05:53:44;0.90;99.90
22522;DHT22;11427;51.062;17.044;2023-02-15T06:08:46;0.90;99.90
22522;DHT22;11427;51.062;17.044;2023-02-15T06:23:48;0.80;99.90
22522;DHT22;11427;51.062;17.044;2023-02-15T06:38:50;1.00;99.90
22522;DHT22;11427;51.062;17.044;2023-02-15T06:53:52;1.20;99.90
22522;DHT22;11427;51.062;17.044;2023-02-15T07:08:54;1.40;99.90
22522;DHT22;11427;51.062;17.044;2023-02-15T07:23:57;1.60;99.90
22522;DHT22;11427;51.062;17.044;2023-02-15T07:39:01;1.90;99.90
22522;DHT22;11427;51.062;17.044;2023-02-15T07:54:03;2.10;99.90
22522;DHT22;11427;51.062;17.044;2023-02-15T08:09:07;2.80;99.90
22522;DHT22;11427;51.062;17.044;2023-02-15T08:24:11;4.10;99.90
22522;DHT22;11427;51.062;17.044;2023-02-15T08:39:14;5.20;99.90
22522;DHT22;11427;51.062;17.044;2023-02-15T08:54:20;5.60;99.90
22522;DHT22;11427;51.062;17.044;2023-02-15T09:09:23;5.90;99.90
22522;DHT22;11427;51.062;17.044;2023-02-15T09:24:25;6.10;99.90
22522;DHT22;11427;51.062;17.044;2023-02-15T09:39:27;7.10;99.90
22522;DHT22;11427;51.062;17.044;2023-02-15T09:54:36;7.60;99.90
22522;DHT22;11427;51.062;17.044;2023-02-15T10:10:19;7.60;99.90
22522;DHT22;11427;51.062;17.044;2023-02-15T11:11:40;7.30;99.90
22522;DHT22;11427;51.062;17.044;2023-02-15T11:26:51;7.50;99.90
22522;DHT22;11427;51.062;17.044;2023-02-15T11:41:59;7.60;99.90
22522;DHT22;11427;51.062;17.044;2023-02-15T12:13:14;7.80;99.90
22522;DHT22;11427;51.062;17.044;2023-02-15T12:28:34;8.00;99.90
22522;DHT22;11427;51.062;17.044;2023-02-15T12:43:41;8.10;99.90
22522;DHT22;11427;51.062;17.044;2023-02-15T12:58:43;8.20;99.90
22522;DHT22;11427;51.062;17.044;2023-02-15T13:14:01;8.30;99.90
22522;DHT22;11427;51.062;17.044;2023-02-15T13:29:15;8.40;99.90
22522;DHT22;11427;51.062;17.044;2023-02-15T13:44:33;8.30;99.90
22522;DHT22;11427;51.062;17.044;2023-02-15T14:15:34;8.30;99.90
22522;DHT22;11427;51.062;17.044;2023-02-15T14:30:49;8.10;99.90
22522;DHT22;11427;51.062;17.044;2023-02-15T15:01:34;8.10;99.90
22522;DHT22;11427;51.062;17.044;2023-02-15T15:31:51;7.70;99.90
22522;DHT22;11427;51.062;17.044;2023-02-15T16:02:15;7.40;99.90
22522;DHT22;11427;51.062;17.044;2023-02-15T16:17:25;7.10;99.90
22522;DHT22;11427;51.062;17.044;2023-02-15T16:32:28;6.90;99.90
22522;DHT22;11427;51.062;17.044;2023-02-15T16:47:31;6.60;99.90
22522;DHT22;11427;51.062;17.044;2023-02-15T17:02:35;6.50;99.90
22522;DHT22;11427;51.062;17.044;2023-02-15T17:18:21;6.30;99.90
22522;DHT22;11427;51.062;17.044;2023-02-15T17:33:36;6.20;99.90
22522;DHT22;11427;51.062;17.044;2023-02-15T17:48:41;5.80;99.90
22522;DHT22;11427;51.062;17.044;2023-02-15T18:03:49;5.80;99.90
22522;DHT22;11427;51.062;17.044;2023-02-15T18:19:37;5.50;99.90
22522;DHT22;11427;51.062;17.044;2023-02-15T18:34:40;5.00;99.90
22522;DHT22;11427;51.062;17.044;2023-02-15T18:49:43;4.60;99.90
22522;DHT22;11427;51.062;17.044;2023-02-15T19:04:46;4.50;99.90
22522;DHT22;11427;51.062;17.044;2023-02-15T19:19:49;4.30;99.90
22522;DHT22;11427;51.062;17.044;2023-02-15T19:34:52;4.00;99.90
22522;DHT22;11427;51.062;17.044;2023-02-15T19:49:54;4.10;99.90
22522;DHT22;11427;51.062;17.044;2023-02-15T20:05:01;3.70;99.90
22522;DHT22;11427;51.062;17.044;2023-02-15T20:20:04;3.40;99.90
22522;DHT22;11427;51.062;17.044;2023-02-15T20:35:07;3.30;99.90
22522;DHT22;11427;51.062;17.044;2023-02-15T20:50:09;3.30;99.90
22522;DHT22;11427;51.062;17.044;2023-02-15T21:20:18;3.10;99.90
22522;DHT22;11427;51.062;17.044;2023-02-15T21:35:20;2.80;99.90
22522;DHT22;11427;51.062;17.044;2023-02-15T21:50:23;2.80;99.90
22522;DHT22;11427;51.062;17.044;2023-02-15T22:05:44;2.70;99.90
22522;DHT22;11427;51.062;17.044;2023-02-15T22:20:46;2.40;99.90
22522;DHT22;11427;51.062;17.044;2023-02-15T22:35:49;2.00;99.90
22522;DHT22;11427;51.062;17.044;2023-02-15T22:50:51;2.10;99.90
22522;DHT22;11427;51.062;17.044;2023-02-15T23:05:53;2.20;99.90
22522;DHT22;11427;51.062;17.044;2023-02-15T23:20:58;2.20;99.90
22522;DHT22;11427;51.062;17.044;2023-02-15T23:36:00;2.10;99.90
22522;DHT22;11427;51.062;17.044;2023-02-15T23:51:03;2.00;99.90
